sensor_id;sensor_type;location;lat;lon;timestamp;temperature;humidity
3940;DHT22;1984;48.312;9.244;2023-06-14T00:02:08;10.10;99.90
3940;DHT22;1984;48.312;9.244;2023-06-14T00:04:34;10.10;99.90
3940;DHT22;1984;48.312;9.244;2023-06-14T00:07:00;10.10;99.90
3940;DHT22;1984;48.312;9.244;2023-06-14T00:09:26;10.00;99.90
3940;DHT22;1984;48.312;9.244;2023-06-14T00:11:52;10.00;99.90
3940;DHT22;1984;48.312;9.244;2023-06-14T00:14:17;10.00;99.90
3940;DHT22;1984;48.312;9.244;2023-06-14T00:16:43;10.00;99.90
3940;DHT22;1984;48.312;9.244;2023-06-14T00:19:09;10.00;99.90
3940;DHT22;1984;48.312;9.244;2023-06-14T00:21:36;9.90;99.90
3940;DHT22;1984;48.312;9.244;2023-06-14T00:24:03;9.90;99.90
3940;DHT22;1984;48.312;9.244;2023-06-14T00:26:29;9.80;99.90
3940;DHT22;1984;48.312;9.244;2023-06-14T00:28:55;9.70;99.90
3940;DHT22;1984;48.312;9.244;2023-06-14T00:31:22;9.60;99.90
3940;DHT22;1984;48.312;9.244;2023-06-14T00:33:47;9.50;99.90
3940;DHT22;1984;48.312;9.244;2023-06-14T00:36:13;9.50;99.90
3940;DHT22;1984;48.312;9.244;2023-06-14T00:38:39;9.50;99.90
3940;DHT22;1984;48.312;9.244;2023-06-14T00:41:04;9.50;99.90
3940;DHT22;1984;48.312;9.244;2023-06-14T00:43:30;9.50;99.90
3940;DHT22;1984;48.312;9.244;2023-06-14T00:45:55;9.40;99.90
3940;DHT22;1984;48.312;9.244;2023-06-14T00:48:21;9.50;99.90
3940;DHT22;1984;48.312;9.244;2023-06-14T00:50:49;9.40;99.90
3940;DHT22;1984;48.312;9.244;2023-06-14T00:53:16;9.40;99.90
3940;DHT22;1984;48.312;9.244;2023-06-14T00:55:43;9.40;99.90
3940;DHT22;1984;48.312;9.244;2023-06-14T00:58:09;9.40;99.90
3940;DHT22;1984;48.312;9.244;2023-06-14T01:00:35;9.30;99.90
3940;DHT22;1984;48.312;9.244;2023-06-14T01:03:01;9.20;99.90
3940;DHT22;1984;48.312;9.244;2023-06-14T01:05:27;9.20;99.90
3940;DHT22;1984;48.312;9.244;2023-06-14T01:13:21;9.10;99.90
3940;DHT22;1984;48.312;9.244;2023-06-14T01:15:50;9.10;99.90
3940;DHT22;1984;48.312;9.244;2023-06-14T01:18:16;9.00;99.90
3940;DHT22;1984;48.312;9.244;2023-06-14T01:20:43;8.90;99.90
3940;DHT22;1984;48.312;9.244;2023-06-14T01:23:10;8.80;99.90
3940;DHT22;1984;48.312;9.244;2023-06-14T01:25:37;8.70;99.90
3940;DHT22;1984;48.312;9.244;2023-06-14T01:28:05;8.70;99.90
3940;DHT22;1984;48.312;9.244;2023-06-14T01:30:39;8.60;99.90
3940;DHT22;1984;48.312;9.244;2023-06-14T01:33:19;8.60;99.90
3940;DHT22;1984;48.312;9.244;2023-06-14T01:35:48;8.60;99.90
3940;DHT22;1984;48.312;9.244;2023-06-14T01:38:14;8.60;99.90
3940;DHT22;1984;48.312;9.244;2023-06-14T01:40:42;8.60;99.90
3940;DHT22;1984;48.312;9.244;2023-06-14T01:43:08;8.60;99.90
3940;DHT22;1984;48.312;9.244;2023-06-14T01:45:35;8.60;99.90
3940;DHT22;1984;48.312;9.244;2023-06-14T01:48:02;8.60;99.90
3940;DHT22;1984;48.312;9.244;2023-06-14T01:50:31;8.60;99.90
3940;DHT22;1984;48.312;9.244;2023-06-14T01:52:57;8.50;99.90
3940;DHT22;1984;48.312;9.244;2023-06-14T01:55:22;8.50;99.90
3940;DHT22;1984;48.312;9.244;2023-06-14T01:57:50;8.40;99.90
3940;DHT22;1984;48.312;9.244;2023-06-14T02:00:16;8.40;99.90
3940;DHT22;1984;48.312;9.244;2023-06-14T02:02:43;8.30;99.90
3940;DHT22;1984;48.312;9.244;2023-06-14T02:05:09;8.30;99.90
3940;DHT22;1984;48.312;9.244;2023-06-14T02:07:36;8.30;99.90
3940;DHT22;1984;48.312;9.244;2023-06-14T02:10:02;8.40;99.90
3940;DHT22;1984;48.312;9.244;2023-06-14T02:12:28;8.30;99.90
3940;DHT22;1984;48.312;9.244;2023-06-14T02:14:53;8.30;99.90
3940;DHT22;1984;48.312;9.244;2023-06-14T02:17:19;8.30;99.90
3940;DHT22;1984;48.312;9.244;2023-06-14T02:19:45;8.30;99.90
3940;DHT22;1984;48.312;9.244;2023-06-14T02:22:11;8.30;99.90
3940;DHT22;1984;48.312;9.244;2023-06-14T02:24:36;8.30;99.90
3940;DHT22;1984;48.312;9.244;2023-06-14T02:27:02;8.30;99.90
3940;DHT22;1984;48.312;9.244;2023-06-14T02:29:28;8.20;99.90
3940;DHT22;1984;48.312;9.244;2023-06-14T02:31:54;8.10;99.90
3940;DHT22;1984;48.312;9.244;2023-06-14T02:34:20;8.10;99.90
3940;DHT22;1984;48.312;9.244;2023-06-14T02:36:47;8.00;99.90
3940;DHT22;1984;48.312;9.244;2023-06-14T02:39:13;7.90;99.90
3940;DHT22;1984;48.312;9.244;2023-06-14T02:41:39;7.90;99.90
3940;DHT22;1984;48.312;9.244;2023-06-14T02:44:05;7.90;99.90
3940;DHT22;1984;48.312;9.244;2023-06-14T02:46:31;7.90;99.90
3940;DHT22;1984;48.312;9.244;2023-06-14T02:48:57;7.90;99.90
3940;DHT22;1984;48.312;9.244;2023-06-14T02:51:22;7.90;99.90
3940;DHT22;1984;48.312;9.244;2023-06-14T02:53:48;7.90;99.90
3940;DHT22;1984;48.312;9.244;2023-06-14T02:56:14;7.90;99.90
3940;DHT22;1984;48.312;9.244;2023-06-14T02:58:39;7.90;99.90
3940;DHT22;1984;48.312;9.244;2023-06-14T03:01:06;7.90;99.90
3940;DHT22;1984;48.312;9.244;2023-06-14T03:03:33;7.80;99.90
3940;DHT22;1984;48.312;9.244;2023-06-14T03:05:59;7.70;99.90
3940;DHT22;1984;48.312;9.244;2023-06-14T03:08:30;7.70;99.90
3940;DHT22;1984;48.312;9.244;2023-06-14T03:10:57;7.70;99.90
3940;DHT22;1984;48.312;9.244;2023-06-14T03:13:23;7.70;99.90
3940;DHT22;1984;48.312;9.244;2023-06-14T03:15:49;7.60;99.90
3940;DHT22;1984;48.312;9.244;2023-06-14T03:18:17;7.60;99.90
3940;DHT22;1984;48.312;9.244;2023-06-14T03:20:44;7.60;99.90
3940;DHT22;1984;48.312;9.244;2023-06-14T03:23:11;7.60;99.90
3940;DHT22;1984;48.312;9.244;2023-06-14T03:25:37;7.60;99.90
3940;DHT22;1984;48.312;9.244;2023-06-14T03:28:04;7.50;99.90
3940;DHT22;1984;48.312;9.244;2023-06-14T03:30:31;7.60;99.90
3940;DHT22;1984;48.312;9.244;2023-06-14T03:32:57;7.50;99.90
3940;DHT22;1984;48.312;9.244;2023-06-14T03:35:23;7.50;99.90
3940;DHT22;1984;48.312;9.244;2023-06-14T03:37:49;7.50;99.90
3940;DHT22;1984;48.312;9.244;2023-06-14T03:40:18;7.50;99.90
3940;DHT22;1984;48.312;9.244;2023-06-14T03:42:44;7.50;99.90
3940;DHT22;1984;48.312;9.244;2023-06-14T03:45:09;7.50;99.90
3940;DHT22;1984;48.312;9.244;2023-06-14T03:47:35;7.50;99.90
3940;DHT22;1984;48.312;9.244;2023-06-14T03:50:02;7.50;99.90
3940;DHT22;1984;48.312;9.244;2023-06-14T03:52:27;7.50;99.90
3940;DHT22;1984;48.312;9.244;2023-06-14T03:54:53;7.50;99.90
3940;DHT22;1984;48.312;9.244;2023-06-14T03:57:19;7.50;99.90
3940;DHT22;1984;48.312;9.244;2023-06-14T03:59:45;7.50;99.90
3940;DHT22;1984;48.312;9.244;2023-06-14T04:02:11;7.50;99.90
3940;DHT22;1984;48.312;9.244;2023-06-14T04:04:37;7.50;99.90
3940;DHT22;1984;48.312;9.244;2023-06-14T04:07:03;7.60;99.90
3940;DHT22;1984;48.312;9.244;2023-06-14T04:09:31;7.60;99.90
3940;DHT22;1984;48.312;9.244;2023-06-14T04:11:57;7.70;99.90
3940;DHT22;1984;48.312;9.244;2023-06-14T04:14:22;7.90;99.90
3940;DHT22;1984;48.312;9.244;2023-06-14T04:16:49;7.90;99.90
3940;DHT22;1984;48.312;9.244;2023-06-14T04:19:17;8.00;99.90
3940;DHT22;1984;48.312;9.244;2023-06-14T04:21:42;8.10;99.90
3940;DHT22;1984;48.312;9.244;2023-06-14T04:24:08;8.10;99.90
3940;DHT22;1984;48.312;9.244;2023-06-14T04:26:39;8.20;99.90
3940;DHT22;1984;48.312;9.244;2023-06-14T04:29:05;8.20;99.90
3940;DHT22;1984;48.312;9.244;2023-06-14T04:31:31;8.30;99.90
3940;DHT22;1984;48.312;9.244;2023-06-14T04:34:03;8.40;99.90
3940;DHT22;1984;48.312;9.244;2023-06-14T04:36:34;8.50;99.90
3940;DHT22;1984;48.312;9.244;2023-06-14T04:39:03;8.70;99.90
3940;DHT22;1984;48.312;9.244;2023-06-14T04:41:32;8.80;99.90
3940;DHT22;1984;48.312;9.244;2023-06-14T04:43:59;8.90;99.90
3940;DHT22;1984;48.312;9.244;2023-06-14T04:46:27;9.00;99.90
3940;DHT22;1984;48.312;9.244;2023-06-14T04:48:54;9.10;99.90
3940;DHT22;1984;48.312;9.244;2023-06-14T04:51:19;9.20;99.90
3940;DHT22;1984;48.312;9.244;2023-06-14T04:53:47;9.30;99.90
3940;DHT22;1984;48.312;9.244;2023-06-14T04:56:15;9.40;99.90
3940;DHT22;1984;48.312;9.244;2023-06-14T04:58:42;9.60;99.90
3940;DHT22;1984;48.312;9.244;2023-06-14T05:01:09;9.80;99.90
3940;DHT22;1984;48.312;9.244;2023-06-14T05:03:34;9.80;99.90
3940;DHT22;1984;48.312;9.244;2023-06-14T05:06:00;9.90;99.90
3940;DHT22;1984;48.312;9.244;2023-06-14T05:08:26;10.10;99.90
3940;DHT22;1984;48.312;9.244;2023-06-14T05:10:52;10.20;99.90
3940;DHT22;1984;48.312;9.244;2023-06-14T05:13:18;10.30;99.90
3940;DHT22;1984;48.312;9.244;2023-06-14T05:15:43;10.40;99.90
3940;DHT22;1984;48.312;9.244;2023-06-14T05:18:09;10.40;99.90
3940;DHT22;1984;48.312;9.244;2023-06-14T05:20:35;10.50;99.90
3940;DHT22;1984;48.312;9.244;2023-06-14T05:23:02;10.50;99.90
3940;DHT22;1984;48.312;9.244;2023-06-14T05:25:28;10.50;99.90
3940;DHT22;1984;48.312;9.244;2023-06-14T05:27:54;10.50;99.90
3940;DHT22;1984;48.312;9.244;2023-06-14T05:30:19;10.60;99.90
3940;DHT22;1984;48.312;9.244;2023-06-14T05:32:45;10.80;99.90
3940;DHT22;1984;48.312;9.244;2023-06-14T05:35:11;11.00;99.90
3940;DHT22;1984;48.312;9.244;2023-06-14T05:37:36;11.20;99.90
3940;DHT22;1984;48.312;9.244;2023-06-14T05:40:03;11.30;99.90
3940;DHT22;1984;48.312;9.244;2023-06-14T05:42:32;11.50;99.90
3940;DHT22;1984;48.312;9.244;2023-06-14T05:44:58;11.70;99.90
3940;DHT22;1984;48.312;9.244;2023-06-14T05:47:24;11.90;99.90
3940;DHT22;1984;48.312;9.244;2023-06-14T05:49:49;12.10;99.90
3940;DHT22;1984;48.312;9.244;2023-06-14T05:52:15;12.40;99.90
3940;DHT22;1984;48.312;9.244;2023-06-14T05:54:40;12.50;99.90
3940;DHT22;1984;48.312;9.244;2023-06-14T05:57:06;12.70;99.90
3940;DHT22;1984;48.312;9.244;2023-06-14T05:59:32;12.80;99.90
3940;DHT22;1984;48.312;9.244;2023-06-14T06:01:58;13.00;99.90
3940;DHT22;1984;48.312;9.244;2023-06-14T06:04:24;13.10;99.90
3940;DHT22;1984;48.312;9.244;2023-06-14T06:06:49;13.30;99.90
3940;DHT22;1984;48.312;9.244;2023-06-14T06:09:15;13.50;99.90
3940;DHT22;1984;48.312;9.244;2023-06-14T06:11:41;13.60;99.90
3940;DHT22;1984;48.312;9.244;2023-06-14T06:14:06;13.80;99.90
3940;DHT22;1984;48.312;9.244;2023-06-14T06:16:32;14.00;99.90
3940;DHT22;1984;48.312;9.244;2023-06-14T06:18:58;14.20;99.90
3940;DHT22;1984;48.312;9.244;2023-06-14T06:21:24;14.50;99.90
3940;DHT22;1984;48.312;9.244;2023-06-14T06:23:50;14.80;99.90
3940;DHT22;1984;48.312;9.244;2023-06-14T06:26:15;15.10;99.90
3940;DHT22;1984;48.312;9.244;2023-06-14T06:28:41;15.50;99.90
3940;DHT22;1984;48.312;9.244;2023-06-14T06:31:06;15.80;99.90
3940;DHT22;1984;48.312;9.244;2023-06-14T06:33:32;16.20;99.90
3940;DHT22;1984;48.312;9.244;2023-06-14T06:35:57;16.60;99.90
3940;DHT22;1984;48.312;9.244;2023-06-14T06:38:23;17.00;98.80
3940;DHT22;1984;48.312;9.244;2023-06-14T06:40:48;17.30;98.20
3940;DHT22;1984;48.312;9.244;2023-06-14T06:43:14;17.70;97.30
3940;DHT22;1984;48.312;9.244;2023-06-14T06:45:42;18.00;97.30
3940;DHT22;1984;48.312;9.244;2023-06-14T06:48:07;18.50;95.50
3940;DHT22;1984;48.312;9.244;2023-06-14T06:50:35;19.00;94.40
3940;DHT22;1984;48.312;9.244;2023-06-14T06:53:01;19.50;93.90
3940;DHT22;1984;48.312;9.244;2023-06-14T06:55:26;20.10;92.70
3940;DHT22;1984;48.312;9.244;2023-06-14T06:57:52;20.70;90.80
3940;DHT22;1984;48.312;9.244;2023-06-14T07:00:19;21.40;83.30
3940;DHT22;1984;48.312;9.244;2023-06-14T07:02:45;21.90;84.00
3940;DHT22;1984;48.312;9.244;2023-06-14T07:05:11;22.50;82.20
3940;DHT22;1984;48.312;9.244;2023-06-14T07:07:37;22.80;81.20
3940;DHT22;1984;48.312;9.244;2023-06-14T07:10:03;23.20;77.30
3940;DHT22;1984;48.312;9.244;2023-06-14T07:12:30;23.70;75.90
3940;DHT22;1984;48.312;9.244;2023-06-14T07:14:59;24.00;71.10
3940;DHT22;1984;48.312;9.244;2023-06-14T07:17:25;24.50;69.50
3940;DHT22;1984;48.312;9.244;2023-06-14T07:19:50;24.80;69.00
3940;DHT22;1984;48.312;9.244;2023-06-14T07:22:16;25.40;65.30
3940;DHT22;1984;48.312;9.244;2023-06-14T07:24:43;25.80;63.10
3940;DHT22;1984;48.312;9.244;2023-06-14T07:27:08;26.10;62.60
3940;DHT22;1984;48.312;9.244;2023-06-14T07:29:34;26.40;60.90
3940;DHT22;1984;48.312;9.244;2023-06-14T07:32:00;26.50;59.50
3940;DHT22;1984;48.312;9.244;2023-06-14T07:34:25;26.70;62.70
3940;DHT22;1984;48.312;9.244;2023-06-14T07:36:52;27.20;58.90
3940;DHT22;1984;48.312;9.244;2023-06-14T07:41:45;28.30;56.50
3940;DHT22;1984;48.312;9.244;2023-06-14T07:44:11;28.40;56.90
3940;DHT22;1984;48.312;9.244;2023-06-14T07:46:37;28.50;56.00
3940;DHT22;1984;48.312;9.244;2023-06-14T07:49:03;28.30;56.00
3940;DHT22;1984;48.312;9.244;2023-06-14T07:51:29;28.40;56.60
3940;DHT22;1984;48.312;9.244;2023-06-14T07:53:54;28.80;55.60
3940;DHT22;1984;48.312;9.244;2023-06-14T07:56:20;29.20;55.10
3940;DHT22;1984;48.312;9.244;2023-06-14T07:58:46;29.40;54.40
3940;DHT22;1984;48.312;9.244;2023-06-14T08:01:12;29.50;54.20
3940;DHT22;1984;48.312;9.244;2023-06-14T08:03:37;29.10;54.10
3940;DHT22;1984;48.312;9.244;2023-06-14T08:06:03;28.70;54.10
3940;DHT22;1984;48.312;9.244;2023-06-14T08:08:29;28.80;54.10
3940;DHT22;1984;48.312;9.244;2023-06-14T08:10:55;29.00;53.80
3940;DHT22;1984;48.312;9.244;2023-06-14T08:13:21;29.20;54.60
3940;DHT22;1984;48.312;9.244;2023-06-14T08:15:47;29.60;54.00
3940;DHT22;1984;48.312;9.244;2023-06-14T08:18:12;30.00;52.80
3940;DHT22;1984;48.312;9.244;2023-06-14T08:20:38;29.70;52.80
3940;DHT22;1984;48.312;9.244;2023-06-14T08:23:03;28.90;53.90
3940;DHT22;1984;48.312;9.244;2023-06-14T08:25:30;28.90;54.20
3940;DHT22;1984;48.312;9.244;2023-06-14T08:27:55;29.00;55.60
3940;DHT22;1984;48.312;9.244;2023-06-14T08:30:22;29.70;53.50
3940;DHT22;1984;48.312;9.244;2023-06-14T08:32:47;30.10;53.10
3940;DHT22;1984;48.312;9.244;2023-06-14T08:35:13;30.70;52.00
3940;DHT22;1984;48.312;9.244;2023-06-14T08:37:40;30.40;52.80
3940;DHT22;1984;48.312;9.244;2023-06-14T08:40:17;30.30;53.10
3940;DHT22;1984;48.312;9.244;2023-06-14T08:42:44;31.30;51.80
3940;DHT22;1984;48.312;9.244;2023-06-14T08:45:11;30.80;51.00
3940;DHT22;1984;48.312;9.244;2023-06-14T08:47:37;30.60;51.20
3940;DHT22;1984;48.312;9.244;2023-06-14T08:50:03;30.60;51.70
3940;DHT22;1984;48.312;9.244;2023-06-14T08:52:33;30.50;53.40
3940;DHT22;1984;48.312;9.244;2023-06-14T08:55:06;31.10;52.60
3940;DHT22;1984;48.312;9.244;2023-06-14T08:57:32;31.10;51.50
3940;DHT22;1984;48.312;9.244;2023-06-14T08:59:59;30.70;52.00
3940;DHT22;1984;48.312;9.244;2023-06-14T09:02:38;31.10;51.00
3940;DHT22;1984;48.312;9.244;2023-06-14T09:05:11;31.90;53.00
3940;DHT22;1984;48.312;9.244;2023-06-14T09:07:39;31.40;50.80
3940;DHT22;1984;48.312;9.244;2023-06-14T09:10:10;30.50;52.60
3940;DHT22;1984;48.312;9.244;2023-06-14T09:12:36;29.30;53.40
3940;DHT22;1984;48.312;9.244;2023-06-14T09:15:05;28.70;54.30
3940;DHT22;1984;48.312;9.244;2023-06-14T09:17:38;28.10;56.20
3940;DHT22;1984;48.312;9.244;2023-06-14T09:20:06;28.40;55.70
3940;DHT22;1984;48.312;9.244;2023-06-14T09:22:33;27.70;55.40
3940;DHT22;1984;48.312;9.244;2023-06-14T09:24:59;26.60;56.90
3940;DHT22;1984;48.312;9.244;2023-06-14T09:27:28;27.20;57.60
3940;DHT22;1984;48.312;9.244;2023-06-14T09:29:54;27.80;57.00
3940;DHT22;1984;48.312;9.244;2023-06-14T09:32:22;29.00;57.00
3940;DHT22;1984;48.312;9.244;2023-06-14T09:34:48;30.60;54.60
3940;DHT22;1984;48.312;9.244;2023-06-14T09:37:27;31.20;53.30
3940;DHT22;1984;48.312;9.244;2023-06-14T09:39:53;31.70;52.00
3940;DHT22;1984;48.312;9.244;2023-06-14T09:42:19;32.30;52.70
3940;DHT22;1984;48.312;9.244;2023-06-14T09:44:48;32.20;52.20
3940;DHT22;1984;48.312;9.244;2023-06-14T09:47:17;32.60;51.70
3940;DHT22;1984;48.312;9.244;2023-06-14T09:49:43;33.30;51.20
3940;DHT22;1984;48.312;9.244;2023-06-14T09:52:15;33.40;50.30
3940;DHT22;1984;48.312;9.244;2023-06-14T09:54:43;33.40;49.60
3940;DHT22;1984;48.312;9.244;2023-06-14T09:57:21;32.40;50.00
3940;DHT22;1984;48.312;9.244;2023-06-14T09:59:48;32.30;51.90
3940;DHT22;1984;48.312;9.244;2023-06-14T10:02:36;31.70;50.90
3940;DHT22;1984;48.312;9.244;2023-06-14T10:05:04;31.60;51.00
3940;DHT22;1984;48.312;9.244;2023-06-14T10:07:55;31.80;51.60
3940;DHT22;1984;48.312;9.244;2023-06-14T10:10:24;32.00;51.70
3940;DHT22;1984;48.312;9.244;2023-06-14T10:12:50;32.60;49.60
3940;DHT22;1984;48.312;9.244;2023-06-14T10:17:57;30.20;50.90
3940;DHT22;1984;48.312;9.244;2023-06-14T10:20:28;29.90;52.70
3940;DHT22;1984;48.312;9.244;2023-06-14T10:23:03;30.60;53.80
3940;DHT22;1984;48.312;9.244;2023-06-14T10:25:31;31.00;51.70
3940;DHT22;1984;48.312;9.244;2023-06-14T10:28:23;30.90;50.40
3940;DHT22;1984;48.312;9.244;2023-06-14T10:31:08;31.30;50.80
3940;DHT22;1984;48.312;9.244;2023-06-14T10:33:56;31.20;52.10
3940;DHT22;1984;48.312;9.244;2023-06-14T10:39:17;31.40;49.70
3940;DHT22;1984;48.312;9.244;2023-06-14T10:41:54;31.60;51.20
3940;DHT22;1984;48.312;9.244;2023-06-14T10:46:49;31.60;50.80
3940;DHT22;1984;48.312;9.244;2023-06-14T10:49:37;31.70;50.80
3940;DHT22;1984;48.312;9.244;2023-06-14T10:52:08;31.40;51.00
3940;DHT22;1984;48.312;9.244;2023-06-14T10:54:37;31.30;50.20
3940;DHT22;1984;48.312;9.244;2023-06-14T10:57:06;30.20;51.10
3940;DHT22;1984;48.312;9.244;2023-06-14T10:59:33;28.40;52.00
3940;DHT22;1984;48.312;9.244;2023-06-14T11:04:56;27.00;54.90
3940;DHT22;1984;48.312;9.244;2023-06-14T11:10:41;27.40;54.50
3940;DHT22;1984;48.312;9.244;2023-06-14T11:13:07;27.70;54.10
3940;DHT22;1984;48.312;9.244;2023-06-14T11:15:35;28.10;54.40
3940;DHT22;1984;48.312;9.244;2023-06-14T11:18:02;28.30;54.00
3940;DHT22;1984;48.312;9.244;2023-06-14T11:20:31;28.00;52.80
3940;DHT22;1984;48.312;9.244;2023-06-14T11:22:58;27.70;53.30
3940;DHT22;1984;48.312;9.244;2023-06-14T11:25:24;27.70;53.60
3940;DHT22;1984;48.312;9.244;2023-06-14T11:27:50;27.40;55.10
3940;DHT22;1984;48.312;9.244;2023-06-14T11:30:16;26.80;54.30
3940;DHT22;1984;48.312;9.244;2023-06-14T11:32:41;26.20;55.70
3940;DHT22;1984;48.312;9.244;2023-06-14T11:35:08;26.20;56.20
3940;DHT22;1984;48.312;9.244;2023-06-14T11:37:35;26.30;58.40
3940;DHT22;1984;48.312;9.244;2023-06-14T11:40:03;26.50;56.60
3940;DHT22;1984;48.312;9.244;2023-06-14T11:42:37;26.10;54.80
3940;DHT22;1984;48.312;9.244;2023-06-14T11:45:04;25.90;55.90
3940;DHT22;1984;48.312;9.244;2023-06-14T11:47:32;25.60;55.70
3940;DHT22;1984;48.312;9.244;2023-06-14T11:49:59;25.10;55.80
3940;DHT22;1984;48.312;9.244;2023-06-14T11:52:25;24.80;57.40
3940;DHT22;1984;48.312;9.244;2023-06-14T11:54:51;25.00;58.50
3940;DHT22;1984;48.312;9.244;2023-06-14T11:57:18;25.40;57.00
3940;DHT22;1984;48.312;9.244;2023-06-14T11:59:44;25.20;57.60
3940;DHT22;1984;48.312;9.244;2023-06-14T12:02:14;25.30;57.10
3940;DHT22;1984;48.312;9.244;2023-06-14T12:04:43;25.30;59.30
3940;DHT22;1984;48.312;9.244;2023-06-14T12:07:10;25.30;57.00
3940;DHT22;1984;48.312;9.244;2023-06-14T12:09:41;25.10;57.90
3940;DHT22;1984;48.312;9.244;2023-06-14T12:12:09;24.80;57.40
3940;DHT22;1984;48.312;9.244;2023-06-14T12:14:36;24.90;59.70
3940;DHT22;1984;48.312;9.244;2023-06-14T12:17:05;25.00;57.50
3940;DHT22;1984;48.312;9.244;2023-06-14T12:19:42;24.80;57.80
3940;DHT22;1984;48.312;9.244;2023-06-14T12:22:11;24.80;60.50
3940;DHT22;1984;48.312;9.244;2023-06-14T12:24:37;25.00;58.60
3940;DHT22;1984;48.312;9.244;2023-06-14T12:27:03;25.20;57.20
3940;DHT22;1984;48.312;9.244;2023-06-14T12:29:30;25.30;59.30
3940;DHT22;1984;48.312;9.244;2023-06-14T12:31:56;25.20;58.90
3940;DHT22;1984;48.312;9.244;2023-06-14T12:34:25;25.00;58.30
3940;DHT22;1984;48.312;9.244;2023-06-14T12:36:55;25.10;57.00
3940;DHT22;1984;48.312;9.244;2023-06-14T12:39:21;25.00;59.30
3940;DHT22;1984;48.312;9.244;2023-06-14T12:41:47;25.10;58.30
3940;DHT22;1984;48.312;9.244;2023-06-14T12:44:14;25.20;56.60
3940;DHT22;1984;48.312;9.244;2023-06-14T12:46:41;25.20;56.10
3940;DHT22;1984;48.312;9.244;2023-06-14T12:59:28;24.00;60.90
3940;DHT22;1984;48.312;9.244;2023-06-14T13:01:59;24.20;60.00
3940;DHT22;1984;48.312;9.244;2023-06-14T13:04:24;24.20;57.90
3940;DHT22;1984;48.312;9.244;2023-06-14T13:06:50;24.00;58.50
3940;DHT22;1984;48.312;9.244;2023-06-14T13:09:15;23.80;59.40
3940;DHT22;1984;48.312;9.244;2023-06-14T13:11:41;23.60;58.90
3940;DHT22;1984;48.312;9.244;2023-06-14T13:14:11;23.60;59.00
3940;DHT22;1984;48.312;9.244;2023-06-14T13:16:36;23.60;58.90
3940;DHT22;1984;48.312;9.244;2023-06-14T13:19:02;23.70;60.90
3940;DHT22;1984;48.312;9.244;2023-06-14T13:21:27;23.80;58.60
3940;DHT22;1984;48.312;9.244;2023-06-14T13:23:53;24.00;60.40
3940;DHT22;1984;48.312;9.244;2023-06-14T13:26:19;24.20;58.90
3940;DHT22;1984;48.312;9.244;2023-06-14T13:28:44;24.00;58.90
3940;DHT22;1984;48.312;9.244;2023-06-14T13:31:10;23.90;59.00
3940;DHT22;1984;48.312;9.244;2023-06-14T13:33:35;23.80;60.90
3940;DHT22;1984;48.312;9.244;2023-06-14T13:36:03;23.80;58.60
3940;DHT22;1984;48.312;9.244;2023-06-14T13:38:28;23.90;61.30
3940;DHT22;1984;48.312;9.244;2023-06-14T13:40:54;23.90;59.00
3940;DHT22;1984;48.312;9.244;2023-06-14T13:43:20;23.90;61.30
3940;DHT22;1984;48.312;9.244;2023-06-14T13:45:48;24.10;61.10
3940;DHT22;1984;48.312;9.244;2023-06-14T13:48:13;24.10;60.60
3940;DHT22;1984;48.312;9.244;2023-06-14T13:50:39;24.10;59.00
3940;DHT22;1984;48.312;9.244;2023-06-14T13:53:04;24.00;60.60
3940;DHT22;1984;48.312;9.244;2023-06-14T13:55:30;24.10;60.40
3940;DHT22;1984;48.312;9.244;2023-06-14T13:57:55;24.20;59.10
3940;DHT22;1984;48.312;9.244;2023-06-14T14:00:22;24.10;60.00
3940;DHT22;1984;48.312;9.244;2023-06-14T14:02:48;24.10;58.70
3940;DHT22;1984;48.312;9.244;2023-06-14T14:05:16;24.10;58.80
3940;DHT22;1984;48.312;9.244;2023-06-14T14:07:41;24.20;61.50
3940;DHT22;1984;48.312;9.244;2023-06-14T14:10:07;24.30;60.00
3940;DHT22;1984;48.312;9.244;2023-06-14T14:12:33;24.50;61.00
3940;DHT22;1984;48.312;9.244;2023-06-14T14:14:59;24.50;58.90
3940;DHT22;1984;48.312;9.244;2023-06-14T14:17:25;24.40;58.60
3940;DHT22;1984;48.312;9.244;2023-06-14T14:19:50;24.10;59.20
3940;DHT22;1984;48.312;9.244;2023-06-14T14:22:16;23.80;59.20
3940;DHT22;1984;48.312;9.244;2023-06-14T14:24:41;23.50;59.50
3940;DHT22;1984;48.312;9.244;2023-06-14T14:27:07;23.40;60.70
3940;DHT22;1984;48.312;9.244;2023-06-14T14:29:33;23.30;60.50
3940;DHT22;1984;48.312;9.244;2023-06-14T14:31:58;23.20;60.40
3940;DHT22;1984;48.312;9.244;2023-06-14T14:34:24;23.10;61.80
3940;DHT22;1984;48.312;9.244;2023-06-14T14:36:50;23.10;60.80
3940;DHT22;1984;48.312;9.244;2023-06-14T14:39:16;23.20;60.60
3940;DHT22;1984;48.312;9.244;2023-06-14T14:41:41;23.30;60.60
3940;DHT22;1984;48.312;9.244;2023-06-14T14:44:07;23.40;59.80
3940;DHT22;1984;48.312;9.244;2023-06-14T14:46:32;23.50;59.40
3940;DHT22;1984;48.312;9.244;2023-06-14T14:48:59;23.80;61.20
3940;DHT22;1984;48.312;9.244;2023-06-14T14:51:25;24.00;61.00
3940;DHT22;1984;48.312;9.244;2023-06-14T14:53:50;24.20;60.50
3940;DHT22;1984;48.312;9.244;2023-06-14T14:56:16;24.30;60.00
3940;DHT22;1984;48.312;9.244;2023-06-14T14:58:42;24.40;59.20
3940;DHT22;1984;48.312;9.244;2023-06-14T15:01:08;24.40;58.20
3940;DHT22;1984;48.312;9.244;2023-06-14T15:03:33;24.60;60.40
3940;DHT22;1984;48.312;9.244;2023-06-14T15:05:59;24.60;58.70
3940;DHT22;1984;48.312;9.244;2023-06-14T15:08:24;24.60;58.20
3940;DHT22;1984;48.312;9.244;2023-06-14T15:10:50;24.50;59.30
3940;DHT22;1984;48.312;9.244;2023-06-14T15:13:15;24.30;58.40
3940;DHT22;1984;48.312;9.244;2023-06-14T15:15:41;24.00;59.10
3940;DHT22;1984;48.312;9.244;2023-06-14T15:18:06;23.70;59.20
3940;DHT22;1984;48.312;9.244;2023-06-14T15:20:32;23.60;59.40
3940;DHT22;1984;48.312;9.244;2023-06-14T15:22:58;23.60;60.80
3940;DHT22;1984;48.312;9.244;2023-06-14T15:25:28;23.80;60.50
3940;DHT22;1984;48.312;9.244;2023-06-14T15:27:53;24.00;60.40
3940;DHT22;1984;48.312;9.244;2023-06-14T15:30:20;23.90;60.00
3940;DHT22;1984;48.312;9.244;2023-06-14T15:32:45;23.90;60.00
3940;DHT22;1984;48.312;9.244;2023-06-14T15:35:11;24.00;59.40
3940;DHT22;1984;48.312;9.244;2023-06-14T15:37:37;24.00;59.90
3940;DHT22;1984;48.312;9.244;2023-06-14T15:40:04;24.10;62.80
3940;DHT22;1984;48.312;9.244;2023-06-14T15:42:30;24.10;60.20
3940;DHT22;1984;48.312;9.244;2023-06-14T15:44:55;24.10;59.20
3940;DHT22;1984;48.312;9.244;2023-06-14T15:47:21;23.90;60.90
3940;DHT22;1984;48.312;9.244;2023-06-14T15:49:46;23.90;60.60
3940;DHT22;1984;48.312;9.244;2023-06-14T15:52:12;23.80;60.60
3940;DHT22;1984;48.312;9.244;2023-06-14T15:54:37;23.80;61.60
3940;DHT22;1984;48.312;9.244;2023-06-14T15:57:03;23.80;60.60
3940;DHT22;1984;48.312;9.244;2023-06-14T15:59:28;23.90;60.30
3940;DHT22;1984;48.312;9.244;2023-06-14T16:01:54;23.90;61.10
3940;DHT22;1984;48.312;9.244;2023-06-14T16:04:19;23.80;62.00
3940;DHT22;1984;48.312;9.244;2023-06-14T16:06:45;23.70;61.20
3940;DHT22;1984;48.312;9.244;2023-06-14T16:09:11;23.70;61.50
3940;DHT22;1984;48.312;9.244;2023-06-14T16:11:36;23.60;61.40
3940;DHT22;1984;48.312;9.244;2023-06-14T16:14:02;23.50;62.00
3940;DHT22;1984;48.312;9.244;2023-06-14T16:16:27;23.50;62.70
3940;DHT22;1984;48.312;9.244;2023-06-14T16:18:53;23.50;63.20
3940;DHT22;1984;48.312;9.244;2023-06-14T16:21:18;23.50;62.20
3940;DHT22;1984;48.312;9.244;2023-06-14T16:23:44;23.50;62.20
3940;DHT22;1984;48.312;9.244;2023-06-14T16:26:10;23.50;62.10
3940;DHT22;1984;48.312;9.244;2023-06-14T16:28:39;23.50;62.90
3940;DHT22;1984;48.312;9.244;2023-06-14T16:31:09;23.50;62.60
3940;DHT22;1984;48.312;9.244;2023-06-14T16:33:34;23.40;61.90
3940;DHT22;1984;48.312;9.244;2023-06-14T16:36:00;23.40;61.80
3940;DHT22;1984;48.312;9.244;2023-06-14T16:38:25;23.40;63.70